Time;durP1;ratioP1;P1;durP2;ratioP2;P2;SDS_P1;SDS_P2;PMS_P1;PMS_P2;Temp;Humidity;BMP_temperature;BMP_pressure;BME280_temperature;BME280_humidity;BME280_pressure;Samples;Min_cycle;Max_cycle;Signal;HPM_P1;HPM_P2
2021/07/26 00:01:51;;;;;;;10.10;9.10;;;;;;;21.43;70.61;100251.05;263675;1095;114736;-75
2021/07/26 00:06:53;;;;;;;9.40;8.50;;;;;;;21.47;69.17;100252.23;263823;1095;114640;-75
2021/07/26 00:11:59;;;;;;;9.90;8.85;;;;;;;21.48;68.93;100243.92;263732;1095;115063;-75
2021/07/26 00:17:04;;;;;;;9.25;8.45;;;;;;;21.44;69.13;100233.86;263576;1095;114316;-74
2021/07/26 00:22:06;;;;;;;10.08;9.18;;;;;;;21.38;68.89;100224.84;263714;1093;114310;-74
2021/07/26 00:27:09;;;;;;;9.68;8.88;;;;;;;21.35;69.00;100211.04;263625;1096;114929;-74
2021/07/26 00:32:11;;;;;;;9.80;8.90;;;;;;;21.38;68.73;100199.84;263689;1094;114500;-74
2021/07/26 00:37:13;;;;;;;10.08;9.18;;;;;;;21.48;68.27;100205.46;263753;1095;114157;-75
2021/07/26 00:42:16;;;;;;;10.05;9.10;;;;;;;21.46;67.46;100212.95;263689;1095;114739;-74
2021/07/26 00:47:18;;;;;;;8.60;7.80;;;;;;;21.43;67.54;100202.65;263800;1095;114750;-74
2021/07/26 00:52:20;;;;;;;9.10;8.30;;;;;;;21.40;67.35;100208.48;263682;1096;114295;-74
2021/07/26 00:57:24;;;;;;;9.90;8.93;;;;;;;21.44;66.85;100190.84;263791;1096;114262;-76
2021/07/26 01:02:31;;;;;;;10.00;9.20;;;;;;;21.41;66.96;100188.59;263758;1095;114724;-73
2021/07/26 01:07:33;;;;;;;10.18;9.28;;;;;;;21.42;67.02;100192.95;263426;1094;114842;-76
2021/07/26 01:12:36;;;;;;;10.00;9.00;;;;;;;21.50;66.34;100187.25;263323;1096;114531;-75
2021/07/26 01:18:05;;;;;;;9.88;9.08;;;;;;;21.51;66.40;100188.88;263614;1095;114510;-75
2021/07/26 01:23:10;;;;;;;9.83;9.03;;;;;;;21.44;66.36;100183.59;263450;1095;114904;-75
2021/07/26 01:28:17;;;;;;;10.43;9.30;;;;;;;21.39;66.28;100180.77;263347;1096;114720;-74
2021/07/26 01:33:19;;;;;;;10.18;9.40;;;;;;;21.27;66.09;100180.70;263384;1096;114902;-75
2021/07/26 01:38:21;;;;;;;11.03;10.05;;;;;;;21.29;65.71;100185.84;263437;1096;114356;-75
2021/07/26 01:43:32;;;;;;;10.28;9.23;;;;;;;21.33;65.34;100170.11;263458;1095;114660;-78
2021/07/26 01:48:54;;;;;;;9.80;8.88;;;;;;;21.38;64.27;100172.95;263356;1096;114645;-74
2021/07/26 01:54:01;;;;;;;9.78;8.88;;;;;;;21.39;63.98;100169.20;263457;1096;114268;-77
2021/07/26 01:59:04;;;;;;;10.28;9.30;;;;;;;21.34;63.82;100167.20;263632;1095;114166;-75
2021/07/26 02:04:08;;;;;;;9.43;8.63;;;;;;;21.23;63.58;100176.84;263645;1094;113383;-76
2021/07/26 02:09:13;;;;;;;9.93;8.93;;;;;;;21.16;63.76;100176.10;263442;1095;113220;-74
2021/07/26 02:14:16;;;;;;;10.08;9.13;;;;;;;21.09;64.07;100169.99;263436;1094;114451;-73
2021/07/26 02:19:18;;;;;;;9.60;8.70;;;;;;;21.08;64.28;100168.36;263595;1095;113918;-74
2021/07/26 02:24:22;;;;;;;10.35;9.40;;;;;;;21.00;64.41;100165.98;263337;1096;113510;-76
2021/07/26 02:29:26;;;;;;;10.00;9.03;;;;;;;21.01;64.15;100170.31;263385;1095;113823;-75
2021/07/26 02:34:32;;;;;;;9.70;8.80;;;;;;;21.09;64.02;100164.62;263220;1095;114811;-77
2021/07/26 02:39:38;;;;;;;9.95;9.13;;;;;;;21.04;63.99;100151.87;263418;1095;114306;-75
2021/07/26 02:44:40;;;;;;;10.10;9.20;;;;;;;20.95;64.78;100153.24;263480;1095;114838;-66
2021/07/26 02:49:43;;;;;;;9.88;8.98;;;;;;;20.97;64.35;100150.31;263188;1096;114492;-75
2021/07/26 02:54:45;;;;;;;10.60;9.57;;;;;;;20.97;64.73;100155.69;263357;1095;115183;-72
2021/07/26 02:59:47;;;;;;;9.10;8.35;;;;;;;20.95;64.19;100152.43;263662;1095;114741;-75
2021/07/26 03:04:53;;;;;;;9.33;8.43;;;;;;;20.92;64.10;100148.31;263681;1096;114690;-73
2021/07/26 03:09:59;;;;;;;9.95;9.10;;;;;;;20.93;64.27;100149.13;263720;1095;114800;-74
2021/07/26 03:15:01;;;;;;;10.00;9.13;;;;;;;20.95;64.05;100152.43;263828;1094;114396;-74
2021/07/26 03:20:05;;;;;;;9.38;8.58;;;;;;;20.99;63.92;100150.92;263517;1095;114594;-75
2021/07/26 03:25:08;;;;;;;9.63;8.83;;;;;;;20.96;63.56;100143.31;263472;1095;114597;-75
2021/07/26 03:30:11;;;;;;;9.43;8.70;;;;;;;20.93;63.80;100149.13;263553;1096;115732;-74
2021/07/26 03:35:14;;;;;;;8.85;8.13;;;;;;;20.91;63.86;100145.87;263695;1096;114217;-73
2021/07/26 03:40:17;;;;;;;9.40;8.40;;;;;;;20.90;63.83;100141.52;263605;1095;114252;-74
2021/07/26 03:45:21;;;;;;;9.53;8.48;;;;;;;20.85;64.15;100142.20;263629;1094;114506;-74
2021/07/26 03:50:23;;;;;;;8.48;7.78;;;;;;;20.83;64.36;100147.00;263725;1095;114487;-73
2021/07/26 03:55:28;;;;;;;9.53;8.38;;;;;;;20.80;64.44;100136.70;263660;1096;114285;-74
2021/07/26 04:00:31;;;;;;;9.35;8.45;;;;;;;20.84;64.25;100139.76;263598;1095;115536;-73
2021/07/26 04:05:40;;;;;;;9.55;8.65;;;;;;;20.92;64.27;100142.13;263586;1096;114182;-75
2021/07/26 04:10:47;;;;;;;9.28;8.38;;;;;;;20.91;64.26;100141.31;263612;1095;114779;-73
2021/07/26 04:15:54;;;;;;;9.58;7.50;;;;;;;20.93;64.17;100138.39;263131;1094;114291;-74
2021/07/26 04:21:08;;;;;;;9.50;8.60;;;;;;;20.97;64.27;100129.64;263474;1096;114782;-75
2021/07/26 04:26:10;;;;;;;8.83;8.13;;;;;;;21.00;64.67;100141.81;263702;1096;115232;-74
2021/07/26 04:31:13;;;;;;;8.13;7.38;;;;;;;21.00;64.44;100133.75;263510;1095;114846;-74
2021/07/26 04:36:15;;;;;;;9.40;8.55;;;;;;;21.07;64.08;100139.04;263483;1096;114157;-76
2021/07/26 04:41:18;;;;;;;8.90;8.20;;;;;;;21.16;64.17;100127.73;263588;1095;115258;-76
2021/07/26 04:46:20;;;;;;;9.00;8.10;;;;;;;21.27;63.79;100140.38;263866;1095;114673;-78
2021/07/26 04:51:23;;;;;;;8.48;7.50;;;;;;;21.32;63.73;100128.13;263351;1095;114570;-75
2021/07/26 04:56:25;;;;;;;9.05;8.00;;;;;;;21.32;63.56;100136.19;263468;1096;114767;-73
2021/07/26 05:07:01;;;;;;;8.83;8.03;;;;;;;21.29;64.26;100137.45;263226;1095;114501;-77
2021/07/26 05:12:11;;;;;;;9.48;8.63;;;;;;;21.29;64.35;100132.89;263317;1095;114828;-75
2021/07/26 05:17:23;;;;;;;9.88;8.90;;;;;;;21.36;64.77;100132.02;263255;1096;114576;-75
2021/07/26 05:22:28;;;;;;;8.95;8.20;;;;;;;21.45;64.60;100126.09;263214;1095;114764;-74
2021/07/26 05:27:33;;;;;;;8.98;8.28;;;;;;;21.55;64.82;100125.52;263321;1096;114617;-75
2021/07/26 05:32:39;;;;;;;9.90;8.93;;;;;;;21.72;64.80;100131.84;263323;1096;114916;-75
2021/07/26 05:37:41;;;;;;;9.50;8.43;;;;;;;21.69;64.21;100132.33;263140;1095;114728;-76
2021/07/26 05:42:45;;;;;;;8.88;8.05;;;;;;;21.57;64.92;100149.47;263224;1095;114276;-75
2021/07/26 05:47:51;;;;;;;9.40;8.60;;;;;;;21.44;65.25;100151.32;263167;1095;114336;-76
2021/07/26 05:52:58;;;;;;;9.50;8.68;;;;;;;21.37;66.08;100157.84;263195;1096;114193;-76
2021/07/26 05:58:04;;;;;;;10.85;9.68;;;;;;;21.33;66.66;100175.48;263259;1095;114891;-78
2021/07/26 06:03:12;;;;;;;9.75;8.75;;;;;;;21.36;66.62;100180.41;263189;1095;114723;-79
2021/07/26 06:08:17;;;;;;;9.88;8.95;;;;;;;21.40;67.31;100182.41;263132;1096;114445;-76
2021/07/26 06:13:19;;;;;;;9.93;9.03;;;;;;;21.51;66.60;100189.69;263229;1096;114602;-75
2021/07/26 06:18:21;;;;;;;10.25;9.25;;;;;;;21.64;66.64;100193.22;263232;1095;114207;-74
2021/07/26 06:23:24;;;;;;;10.05;9.18;;;;;;;21.69;66.29;100196.88;263264;1095;114483;-74
2021/07/26 06:28:27;;;;;;;10.08;9.20;;;;;;;21.80;66.80;100202.49;263220;1095;114685;-75
2021/07/26 06:33:32;;;;;;;8.60;7.80;;;;;;;21.85;66.28;100218.78;263214;1096;114456;-76
2021/07/26 06:38:36;;;;;;;10.00;8.98;;;;;;;21.92;66.63;100200.64;263283;1096;114218;-75
2021/07/26 06:44:04;;;;;;;10.25;9.20;;;;;;;21.95;66.47;100200.17;263376;1096;114233;31
2021/07/26 06:49:06;;;;;;;9.58;8.58;;;;;;;21.87;66.56;100213.97;263160;1096;113247;-74
2021/07/26 06:54:08;;;;;;;8.73;8.10;;;;;;;21.76;67.37;100207.52;263105;1095;113332;-75
2021/07/26 06:59:11;;;;;;;11.03;9.80;;;;;;;21.66;67.46;100213.47;263126;1095;114193;-80
2021/07/26 07:04:18;;;;;;;11.45;9.23;;;;;;;21.67;68.28;100207.03;263341;1095;114287;-81
2021/07/26 07:09:23;;;;;;;10.88;9.78;;;;;;;21.67;68.16;100209.72;263326;1096;113441;-77
2021/07/26 07:14:29;;;;;;;10.28;9.45;;;;;;;21.65;68.67;100211.84;263387;1095;114768;-77
2021/07/26 07:19:31;;;;;;;10.45;9.53;;;;;;;21.73;68.20;100203.44;263451;1095;114784;-75
2021/07/26 07:24:33;;;;;;;10.13;9.23;;;;;;;21.86;68.02;100209.66;263559;1095;115220;-74
2021/07/26 07:29:36;;;;;;;10.53;9.63;;;;;;;21.78;68.10;100216.19;263180;1096;114372;-74
2021/07/26 07:34:42;;;;;;;10.18;9.28;;;;;;;21.69;68.70;100212.20;263263;1095;115135;-74
2021/07/26 07:39:45;;;;;;;9.73;8.83;;;;;;;21.62;68.86;100222.23;263147;1096;114993;-76
2021/07/26 07:44:49;;;;;;;11.78;10.68;;;;;;;21.67;68.98;100233.12;263264;1096;114128;-78
2021/07/26 07:49:51;;;;;;;10.23;9.28;;;;;;;21.63;68.19;100230.06;263222;1096;114502;-75
2021/07/26 07:54:53;;;;;;;10.73;9.78;;;;;;;21.71;68.40;100220.84;263136;1095;114757;-76
2021/07/26 07:59:56;;;;;;;9.63;8.83;;;;;;;21.83;68.52;100228.94;263093;1095;114435;-76
2021/07/26 08:04:58;;;;;;;9.93;9.13;;;;;;;21.67;68.85;100220.48;263304;1095;114766;-75
2021/07/26 08:10:00;;;;;;;10.68;9.65;;;;;;;21.62;68.88;100214.98;263272;1095;114195;-76
2021/07/26 08:15:03;;;;;;;11.08;10.18;;;;;;;21.69;69.21;100213.02;263299;1096;114881;-75
2021/07/26 08:20:10;;;;;;;10.68;9.80;;;;;;;21.93;68.56;100213.06;263443;1096;115011;-75
2021/07/26 08:25:17;;;;;;;11.15;10.15;;;;;;;21.93;68.35;100215.75;263138;1095;115920;-79
2021/07/26 08:30:28;;;;;;;10.33;9.33;;;;;;;22.08;68.17;100213.43;263320;1096;114741;-77
2021/07/26 08:35:37;;;;;;;9.70;8.90;;;;;;;22.06;67.17;100212.83;263272;1096;114934;-76
2021/07/26 08:40:44;;;;;;;12.28;11.08;;;;;;;22.10;67.75;100214.00;263185;1098;114565;-75
2021/07/26 08:45:47;;;;;;;11.73;10.68;;;;;;;22.13;67.68;100208.19;263073;1095;115238;-75
2021/07/26 08:50:50;;;;;;;10.78;9.78;;;;;;;22.18;67.88;100215.56;263219;1096;115195;-77
2021/07/26 08:55:55;;;;;;;12.68;10.95;;;;;;;21.93;68.53;100215.75;263196;1097;114901;-78
2021/07/26 09:00:57;;;;;;;12.03;11.03;;;;;;;22.00;69.19;100221.85;263332;1098;115044;-78
2021/07/26 09:05:59;;;;;;;11.23;10.33;;;;;;;22.08;68.30;100218.81;263273;1096;115054;-76
2021/07/26 09:11:04;;;;;;;12.30;11.30;;;;;;;22.13;68.54;100221.65;263331;1095;114532;-76
2021/07/26 09:16:20;;;;;;;11.93;10.93;;;;;;;22.25;68.99;100225.16;263183;1096;114881;-76
2021/07/26 09:21:49;;;;;;;12.63;11.58;;;;;;;22.33;68.24;100223.17;263217;1095;114692;-77
2021/07/26 09:26:52;;;;;;;12.45;11.40;;;;;;;22.13;68.92;100235.11;263129;1095;114945;-74
2021/07/26 09:32:01;;;;;;;11.53;10.40;;;;;;;21.89;70.27;100225.34;263272;1095;114528;-75
2021/07/26 09:37:16;;;;;;;12.05;10.95;;;;;;;21.84;70.78;100233.27;263166;1095;115025;-79
2021/07/26 09:42:28;;;;;;;12.38;11.28;;;;;;;21.66;71.88;100234.98;263186;1096;114585;-76
2021/07/26 09:47:31;;;;;;;11.90;10.90;;;;;;;21.63;72.56;100246.20;263228;1096;115283;-77
2021/07/26 09:52:33;;;;;;;13.17;11.97;;;;;;;21.76;72.11;100226.34;263155;1095;114700;-75
2021/07/26 09:57:41;;;;;;;12.68;11.65;;;;;;;22.33;70.90;100233.95;263244;1095;114987;-75
2021/07/26 10:02:48;;;;;;;12.93;11.73;;;;;;;22.78;69.53;100236.00;263333;1094;114678;-76
2021/07/26 10:07:52;;;;;;;12.80;11.80;;;;;;;22.79;68.92;100237.66;263144;1096;114711;-76
2021/07/26 10:12:55;;;;;;;13.28;12.13;;;;;;;22.81;69.16;100230.95;263104;1096;114543;-76
2021/07/26 10:17:58;;;;;;;12.78;11.68;;;;;;;22.70;69.79;100237.19;263150;1095;114638;-75
2021/07/26 10:23:08;;;;;;;12.78;11.68;;;;;;;22.75;69.25;100243.52;263293;1096;114939;-73
2021/07/26 10:28:32;;;;;;;13.25;12.10;;;;;;;22.83;69.18;100241.52;263237;1095;114996;-79
2021/07/26 10:34:15;;;;;;;13.45;12.35;;;;;;;23.07;68.97;100229.64;263333;1095;115073;-77
2021/07/26 10:39:18;;;;;;;15.05;13.48;;;;;;;23.26;65.88;100232.17;262039;1096;115159;-77
2021/07/26 10:44:21;;;;;;;13.28;12.28;;;;;;;23.44;66.68;100232.80;263350;1096;115149;-74
2021/07/26 10:49:51;;;;;;;13.45;12.25;;;;;;;23.62;65.07;100220.96;263432;1095;115071;-74
2021/07/26 10:54:55;;;;;;;12.48;11.50;;;;;;;23.99;63.64;100208.90;263747;1096;114830;-75
2021/07/26 11:00:15;;;;;;;13.03;11.88;;;;;;;24.39;62.53;100197.94;263775;1096;114631;-76
2021/07/26 11:05:24;;;;;;;11.85;10.85;;;;;;;24.30;63.81;100199.38;263547;1095;114474;-74
2021/07/26 11:10:47;;;;;;;11.33;10.53;;;;;;;24.73;61.99;100197.83;263709;1095;114554;-78
2021/07/26 11:15:50;;;;;;;11.50;10.60;;;;;;;25.18;59.94;100184.88;263190;1095;115551;-76
2021/07/26 11:20:59;;;;;;;12.38;11.18;;;;;;;25.25;59.36;100183.87;263334;1095;114801;-78
2021/07/26 11:26:05;;;;;;;11.30;10.38;;;;;;;25.50;58.34;100181.39;263318;1096;114595;-76
2021/07/26 11:31:08;;;;;;;11.58;10.58;;;;;;;25.42;58.80;100179.16;263185;1095;114901;-77
2021/07/26 11:36:10;;;;;;;10.88;10.00;;;;;;;24.90;60.52;100179.67;263258;1095;114678;-75
2021/07/26 11:41:17;;;;;;;11.20;10.40;;;;;;;25.71;57.08;100159.94;263323;1096;113554;-78
2021/07/26 11:46:23;;;;;;;10.30;9.50;;;;;;;26.34;56.72;100158.20;263189;1094;114653;-75
2021/07/26 11:51:37;;;;;;;10.30;9.43;;;;;;;26.19;55.25;100160.83;263311;1095;113426;-75
2021/07/26 11:56:40;;;;;;;10.98;10.10;;;;;;;26.31;56.36;100151.41;263220;1096;114418;-75
2021/07/26 12:01:48;;;;;;;10.03;9.20;;;;;;;26.02;57.56;100158.27;263353;1096;114551;-75
2021/07/26 12:06:52;;;;;;;9.60;8.88;;;;;;;25.47;57.11;100154.84;263323;1094;115442;-75
2021/07/26 12:12:07;;;;;;;10.73;9.93;;;;;;;25.54;58.25;100141.91;263409;1090;114278;-76
2021/07/26 12:17:23;;;;;;;8.68;8.00;;;;;;;25.28;56.93;100142.78;263474;1095;114763;-79
2021/07/26 12:22:25;;;;;;;13.05;9.38;;;;;;;25.19;58.85;100147.81;263287;1096;114987;-75
2021/07/26 12:27:32;;;;;;;7.90;7.20;;;;;;;25.49;55.43;100133.77;263350;1095;114387;-75
2021/07/26 12:32:56;;;;;;;8.05;7.45;;;;;;;25.55;56.59;100123.78;263375;1096;114246;-76
2021/07/26 12:38:15;;;;;;;8.98;8.23;;;;;;;25.38;57.46;100129.33;263242;1095;114399;-76
2021/07/26 12:43:27;;;;;;;9.68;8.53;;;;;;;25.32;56.46;100133.89;263330;1095;114770;-75
2021/07/26 12:53:50;;;;;;;10.45;9.45;;;;;;;25.51;57.80;100120.80;263228;1095;114229;-76
2021/07/26 12:58:53;;;;;;;10.30;9.45;;;;;;;25.78;57.13;100123.45;263176;1097;114806;-77
2021/07/26 13:03:55;;;;;;;9.88;9.15;;;;;;;25.91;56.46;100111.38;263150;1097;114478;-77
2021/07/26 13:08:58;;;;;;;13.08;12.05;;;;;;;26.11;56.98;100108.77;263159;1098;114527;-76
2021/07/26 13:14:04;;;;;;;11.83;10.83;;;;;;;26.03;56.82;100101.15;263184;1095;114583;-75
2021/07/26 13:19:11;;;;;;;9.70;8.98;;;;;;;25.65;56.03;100091.39;263274;1097;114432;-76
2021/07/26 13:24:13;;;;;;;10.05;9.23;;;;;;;25.51;56.63;100091.03;263272;1097;114367;-77
2021/07/26 13:29:16;;;;;;;9.45;8.75;;;;;;;25.57;56.57;100100.00;263136;1096;114826;-75
2021/07/26 13:34:18;;;;;;;9.68;8.98;;;;;;;25.40;56.64;100094.73;263392;1095;114554;-78
2021/07/26 13:39:21;;;;;;;13.10;11.78;;;;;;;25.21;57.92;100113.23;263330;1095;114335;-76
2021/07/26 13:44:24;;;;;;;10.48;9.50;;;;;;;25.09;58.18;100116.09;263407;1095;114609;-70
2021/07/26 13:49:26;;;;;;;5.48;4.28;;;;;;;23.88;59.91;100146.67;263232;1096;114962;-75
2021/07/26 13:54:32;;;;;;;4.20;3.83;;;;;;;23.13;62.97;100158.61;263144;1095;114747;-80
2021/07/26 13:59:34;;;;;;;2.45;2.35;;;;;;;22.60;62.98;100170.45;263304;1096;114416;-77
2021/07/26 14:04:37;;;;;;;3.68;2.85;;;;;;;21.96;67.21;100175.75;263152;1095;114240;-74
2021/07/26 14:09:39;;;;;;;3.20;2.70;;;;;;;21.25;72.30;100163.97;263219;1096;114471;-63
2021/07/26 14:14:42;;;;;;;2.48;2.35;;;;;;;21.04;72.16;100161.80;263227;1096;114250;-75
2021/07/26 14:19:45;;;;;;;2.85;2.70;;;;;;;21.03;73.51;100170.92;263286;1095;114983;-74
2021/07/26 14:24:48;;;;;;;2.80;2.60;;;;;;;21.09;74.54;100177.23;263257;1095;114322;-74
2021/07/26 14:29:50;;;;;;;3.00;2.80;;;;;;;20.87;75.45;100187.64;263302;1096;114736;-77
2021/07/26 14:34:52;;;;;;;3.80;3.30;;;;;;;21.03;76.10;100192.41;263189;1096;114303;-63
2021/07/26 14:39:55;;;;;;;3.05;2.78;;;;;;;21.04;76.83;100177.92;263258;1096;114281;-76
2021/07/26 14:45:00;;;;;;;3.75;3.43;;;;;;;21.22;75.50;100164.45;263274;1096;114935;-75
2021/07/26 14:50:03;;;;;;;4.13;3.40;;;;;;;21.04;76.56;100140.30;263266;1096;114481;-77
2021/07/26 14:55:05;;;;;;;3.70;2.90;;;;;;;21.12;76.34;100131.92;263337;1096;114303;-75
2021/07/26 15:00:12;;;;;;;3.13;2.88;;;;;;;21.04;77.63;100137.62;263237;1095;114579;-76
2021/07/26 15:05:21;;;;;;;3.23;2.95;;;;;;;21.27;77.31;100134.19;263362;1095;114553;-74
2021/07/26 15:10:39;;;;;;;4.05;3.40;;;;;;;21.21;78.59;100124.34;263221;1096;114315;-75
2021/07/26 15:15:50;;;;;;;2.98;2.78;;;;;;;21.25;77.09;100130.90;263383;1095;115255;-76
2021/07/26 15:20:52;;;;;;;2.50;2.30;;;;;;;21.26;76.11;100128.00;263215;1095;114886;-76
2021/07/26 15:25:58;;;;;;;2.63;2.43;;;;;;;21.32;76.46;100109.30;263319;1096;114773;-74
2021/07/26 15:36:10;;;;;;;2.60;2.38;;;;;;;21.39;77.17;100120.81;263289;1095;114382;-75
2021/07/26 15:41:13;;;;;;;2.70;2.50;;;;;;;21.40;76.58;100122.44;263484;1096;114192;-74
2021/07/26 15:46:15;;;;;;;3.08;2.78;;;;;;;21.35;76.22;100115.07;263316;1096;114542;-78
2021/07/26 15:51:20;;;;;;;2.50;2.15;;;;;;;21.30;78.35;100128.36;263751;1096;115018;-76
2021/07/26 15:56:29;;;;;;;3.63;3.00;;;;;;;21.27;77.38;100140.38;263611;1094;114396;-82
2021/07/26 16:01:36;;;;;;;3.55;3.00;;;;;;;21.22;78.32;100140.27;263324;1095;115306;-75
2021/07/26 16:06:41;;;;;;;3.58;3.08;;;;;;;21.09;77.80;100143.13;263531;1095;114509;-76
2021/07/26 16:11:44;;;;;;;4.15;3.75;;;;;;;21.08;79.39;100125.36;263192;1095;114346;-74
2021/07/26 16:16:46;;;;;;;4.85;3.85;;;;;;;20.91;79.19;100125.19;263337;1095;114197;-75
2021/07/26 16:21:48;;;;;;;4.53;4.13;;;;;;;20.88;79.94;100140.94;263322;1096;114207;-74
2021/07/26 16:26:51;;;;;;;5.63;4.10;;;;;;;20.94;80.38;100150.77;263334;1095;114771;-75
2021/07/26 16:31:55;;;;;;;4.30;4.00;;;;;;;21.14;79.30;100139.74;263221;1090;114256;-76
2021/07/26 16:37:00;;;;;;;5.68;4.98;;;;;;;21.21;79.15;100129.72;263197;1096;115464;-75
2021/07/26 16:42:09;;;;;;;5.15;4.58;;;;;;;21.43;78.78;100122.80;263215;1094;114523;-75
2021/07/26 16:47:14;;;;;;;6.15;5.65;;;;;;;21.40;79.12;100128.63;263189;1096;114678;-77
2021/07/26 16:52:16;;;;;;;5.88;4.90;;;;;;;21.36;79.25;100134.70;263281;1096;114681;-75
2021/07/26 16:57:19;;;;;;;5.60;5.08;;;;;;;21.29;79.87;100143.65;263306;1095;114531;-78
2021/07/26 17:02:23;;;;;;;5.58;5.00;;;;;;;;;;263283;1095;116209;-74
2021/07/26 17:07:33;;;;;;;6.23;5.73;;;;;;;21.33;79.79;100153.98;263407;1095;101607;-77
2021/07/26 17:12:39;;;;;;;5.65;4.83;;;;;;;21.41;79.81;100156.34;263144;1095;114192;-74
2021/07/26 17:17:42;;;;;;;5.93;5.43;;;;;;;21.46;79.61;100159.17;263386;1095;114830;-76
2021/07/26 17:22:44;;;;;;;7.03;6.38;;;;;;;21.41;80.08;100150.95;263627;1095;114954;-77
2021/07/26 17:27:47;;;;;;;6.85;6.28;;;;;;;21.53;79.84;100151.80;263919;1095;113869;-75
2021/07/26 17:32:49;;;;;;;7.25;6.55;;;;;;;21.52;80.32;100153.67;263307;1096;114324;-72
2021/07/26 17:37:55;;;;;;;7.00;6.33;;;;;;;21.44;80.50;100150.50;263386;1095;113855;-74
2021/07/26 17:42:58;;;;;;;8.98;8.08;;;;;;;21.46;80.63;100153.80;263535;1096;114136;-74
2021/07/26 17:48:00;;;;;;;6.98;6.48;;;;;;;21.54;80.60;100150.77;263504;1096;114003;-74
2021/07/26 17:53:02;;;;;;;7.58;6.85;;;;;;;21.62;79.95;100147.74;263446;1095;115512;-74
2021/07/26 17:58:05;;;;;;;8.15;7.45;;;;;;;21.55;80.52;100133.58;263173;1095;114604;-74
2021/07/26 18:03:07;;;;;;;7.90;7.20;;;;;;;21.46;81.10;100116.97;263294;1095;114517;-74
2021/07/26 18:08:14;;;;;;;7.55;6.95;;;;;;;21.45;81.33;100126.09;263239;1095;114842;-75
2021/07/26 18:13:16;;;;;;;8.25;7.53;;;;;;;21.47;81.33;100139.30;263178;1095;114584;-75
2021/07/26 18:18:21;;;;;;;8.98;8.18;;;;;;;21.25;81.79;100142.47;263330;1095;114831;-73
2021/07/26 18:23:24;;;;;;;9.00;8.30;;;;;;;21.35;81.83;100139.27;263310;1095;115114;-75
2021/07/26 18:28:27;;;;;;;9.28;8.55;;;;;;;21.29;81.98;100146.33;263273;1095;114237;-74
2021/07/26 18:33:30;;;;;;;8.70;7.80;;;;;;;21.21;82.06;100154.73;263330;1094;114699;-73
2021/07/26 18:38:32;;;;;;;8.83;8.03;;;;;;;21.17;81.30;100145.48;263112;1095;114165;-73
2021/07/26 18:43:35;;;;;;;9.65;8.75;;;;;;;21.26;81.43;100146.00;263183;1096;114636;-75
2021/07/26 18:48:47;;;;;;;9.03;8.23;;;;;;;21.13;81.47;100146.98;263233;1096;115017;-77
2021/07/26 18:53:54;;;;;;;9.93;8.93;;;;;;;21.14;81.16;100127.15;263104;1096;114888;-76
2021/07/26 18:58:56;;;;;;;10.20;9.30;;;;;;;21.12;81.52;100134.61;263073;1095;114615;-74
2021/07/26 19:03:59;;;;;;;9.85;9.05;;;;;;;21.13;81.13;100130.86;263116;1095;114844;-75
2021/07/26 19:09:01;;;;;;;9.25;8.35;;;;;;;21.09;80.94;100135.05;263268;1096;114796;-78
2021/07/26 19:14:04;;;;;;;9.73;8.93;;;;;;;21.05;81.33;100134.69;263327;1095;114564;-79
2021/07/26 19:19:08;;;;;;;10.90;9.95;;;;;;;21.10;81.08;100125.94;263334;1096;114791;-75
2021/07/26 19:24:11;;;;;;;9.30;8.48;;;;;;;21.06;80.97;100127.45;263552;1095;114481;-74
2021/07/26 19:29:13;;;;;;;10.33;9.53;;;;;;;21.01;81.37;100135.38;263240;1095;114186;-73
2021/07/26 19:34:18;;;;;;;9.60;8.80;;;;;;;20.86;81.77;100140.33;263235;1096;114334;-74
2021/07/26 19:39:25;;;;;;;10.68;9.68;;;;;;;20.84;81.84;100145.13;263165;1096;114417;-82
2021/07/26 19:44:27;;;;;;;10.98;10.00;;;;;;;20.87;81.53;100150.02;263127;1096;114591;-79
2021/07/26 19:49:31;;;;;;;10.53;9.53;;;;;;;20.88;81.78;100140.94;263661;1096;114470;-78
2021/07/26 19:54:33;;;;;;;10.58;9.75;;;;;;;20.86;81.87;100143.84;263781;1095;114705;-74
2021/07/26 19:59:39;;;;;;;10.23;9.38;;;;;;;20.75;82.32;100150.81;263549;1095;114318;-75
2021/07/26 20:04:41;;;;;;;11.35;10.23;;;;;;;20.65;82.69;100150.52;263199;1096;115036;-73
2021/07/26 20:09:43;;;;;;;11.18;10.10;;;;;;;20.61;82.80;100146.64;263342;1096;115119;-74
2021/07/26 20:14:49;;;;;;;12.03;10.88;;;;;;;20.64;82.59;100156.94;263438;1095;114782;-74
2021/07/26 20:19:56;;;;;;;12.23;11.13;;;;;;;20.62;82.55;100169.75;263100;1096;115173;-78
2021/07/26 20:25:01;;;;;;;12.38;11.28;;;;;;;20.54;83.15;100175.42;263421;1096;115649;-76
2021/07/26 20:30:04;;;;;;;12.33;11.03;;;;;;;20.38;83.82;100178.67;263224;1093;114467;-63
2021/07/26 20:35:07;;;;;;;11.68;10.48;;;;;;;20.37;84.34;100179.73;263344;1095;114715;-74
2021/07/26 20:40:10;;;;;;;11.35;10.20;;;;;;;20.42;83.81;100174.50;263740;1096;115879;-75
2021/07/26 20:45:12;;;;;;;11.90;10.90;;;;;;;20.38;84.15;100178.67;263754;1094;115057;-74
2021/07/26 20:50:16;;;;;;;11.85;10.85;;;;;;;20.34;85.01;100169.42;263653;1096;115598;-76
2021/07/26 20:55:21;;;;;;;12.80;11.65;;;;;;;20.34;84.67;100172.11;263210;1096;115608;-74
2021/07/26 21:00:28;;;;;;;12.30;11.20;;;;;;;20.45;84.22;100168.69;263495;1096;115727;-72
2021/07/26 21:05:35;;;;;;;11.55;10.55;;;;;;;20.47;83.94;100161.22;263637;1095;115892;-78
2021/07/26 21:10:37;;;;;;;11.30;10.30;;;;;;;20.57;84.19;100164.25;263059;1095;114968;-74
2021/07/26 21:15:52;;;;;;;12.30;11.00;;;;;;;20.68;83.63;100160.81;263287;1096;114521;-77
2021/07/26 21:20:54;;;;;;;11.90;10.73;;;;;;;20.70;83.88;100177.50;263327;1095;114673;-73
2021/07/26 21:25:57;;;;;;;12.13;11.13;;;;;;;20.78;83.66;100163.77;263243;1096;116339;-73
2021/07/26 21:31:00;;;;;;;13.18;11.98;;;;;;;20.79;83.34;100176.17;263161;1095;115248;-73
2021/07/26 21:36:02;;;;;;;13.38;12.18;;;;;;;20.79;83.09;100165.43;263180;1096;114810;-72
2021/07/26 21:41:04;;;;;;;11.65;10.65;;;;;;;20.83;82.79;100170.33;263106;1096;114684;-73
2021/07/26 21:46:06;;;;;;;12.05;11.05;;;;;;;20.77;83.10;100175.56;263139;1096;115091;-73
2021/07/26 21:51:13;;;;;;;12.80;11.70;;;;;;;20.70;83.20;100172.13;263140;1096;114837;-74
2021/07/26 21:56:17;;;;;;;13.80;12.53;;;;;;;20.68;83.34;100174.23;263297;1095;115044;-73
2021/07/26 22:01:24;;;;;;;14.00;12.70;;;;;;;20.67;83.76;100177.95;263168;1096;115213;-74
2021/07/26 22:06:26;;;;;;;14.10;12.80;;;;;;;20.69;83.43;100167.81;263049;1096;114815;-75
2021/07/26 22:11:28;;;;;;;13.45;12.25;;;;;;;20.66;83.74;100186.24;263258;1095;114564;-73
2021/07/26 22:16:31;;;;;;;13.43;12.30;;;;;;;20.68;83.21;100168.87;263216;1095;114772;-72
2021/07/26 22:21:33;;;;;;;15.10;13.68;;;;;;;20.66;83.05;100176.31;263342;1095;114531;-73
2021/07/26 22:26:35;;;;;;;14.48;13.03;;;;;;;20.51;83.15;100167.81;263635;1095;114632;-73
2021/07/26 22:31:38;;;;;;;14.60;13.20;;;;;;;20.47;83.55;100169.27;263326;1095;114578;-74
2021/07/26 22:36:43;;;;;;;;;;;;;;;20.43;83.91;100168.08;263211;1095;114578;-75
2021/07/26 22:41:46;;;;;;;14.83;13.58;;;;;;;20.38;84.01;100167.94;263306;1095;100953;-74
2021/07/26 22:46:48;;;;;;;14.73;13.43;;;;;;;20.43;83.60;100160.84;263218;1095;115218;-73
2021/07/26 22:51:51;;;;;;;15.03;13.58;;;;;;;20.43;83.52;100168.08;263228;1094;114738;-73
2021/07/26 22:56:53;;;;;;;14.90;13.63;;;;;;;20.42;83.55;100169.13;263131;1096;115079;-73
2021/07/26 23:01:55;;;;;;;14.55;13.15;;;;;;;20.40;83.05;100163.15;263277;1095;114946;-73
2021/07/26 23:06:57;;;;;;;16.03;14.60;;;;;;;20.39;83.41;100148.09;263478;1096;114533;-73
2021/07/26 23:12:00;;;;;;;17.95;16.40;;;;;;;20.37;83.90;100155.56;263336;1096;114624;-74